Time;durP1;ratioP1;P1;durP2;ratioP2;P2;SDS_P1;SDS_P2;PMS_P1;PMS_P2;Temp;Humidity;BMP_temperature;BMP_pressure;BME280_temperature;BME280_humidity;BME280_pressure;Samples;Min_cycle;Max_cycle;Signal;HPM_P1;HPM_P2
2023/03/18 00:02:07;;;;;;;20.00;12.07;;;11.30;99.90;;;;;;5095512;28;20278;-75
2023/03/18 00:04:33;;;;;;;15.30;11.30;;;11.30;99.90;;;;;;5094952;28;20320;-75
2023/03/18 00:06:59;;;;;;;17.53;12.53;;;11.30;99.90;;;;;;5093669;28;20313;-75
2023/03/18 00:09:25;;;;;;;19.07;12.43;;;11.30;99.90;;;;;;5094571;28;20373;-75
2023/03/18 00:11:52;;;;;;;18.30;12.17;;;11.20;99.90;;;;;;5093603;28;20048;-75
2023/03/18 00:14:19;;;;;;;15.97;11.93;;;11.30;99.90;;;;;;5094764;28;20793;-75
2023/03/18 00:16:45;;;;;;;16.13;12.90;;;11.30;99.90;;;;;;5094716;28;20284;-75
2023/03/18 00:19:11;;;;;;;18.27;13.00;;;11.20;99.90;;;;;;5094685;28;20747;-75
2023/03/18 00:21:37;;;;;;;19.03;13.47;;;11.20;99.90;;;;;;5095436;28;20091;-75
2023/03/18 00:24:04;;;;;;;17.07;12.60;;;11.20;99.90;;;;;;5077025;28;20329;-75
2023/03/18 00:26:30;;;;;;;17.80;13.53;;;11.20;99.90;;;;;;5094682;28;20040;-75
2023/03/18 00:28:57;;;;;;;19.50;13.50;;;11.20;99.90;;;;;;5094634;28;20634;-75
2023/03/18 00:31:23;;;;;;;20.17;13.60;;;11.20;99.90;;;;;;5094372;28;20055;-75
2023/03/18 00:33:49;;;;;;;19.47;14.90;;;11.20;99.90;;;;;;5094391;28;20278;-75
2023/03/18 00:36:17;;;;;;;17.97;13.73;;;11.20;99.90;;;;;;5094426;28;20266;-75
2023/03/18 00:38:45;;;;;;;17.23;13.87;;;11.20;99.90;;;;;;5093324;28;20056;-75
2023/03/18 00:41:14;;;;;;;18.60;13.83;;;11.20;99.90;;;;;;5092987;28;20282;-75
2023/03/18 00:43:45;;;;;;;18.13;14.40;;;11.20;99.90;;;;;;5094203;28;20611;-76
2023/03/18 00:46:16;;;;;;;20.97;15.63;;;11.20;99.90;;;;;;5094111;28;20294;-75
2023/03/18 00:48:46;;;;;;;19.40;15.70;;;11.20;99.90;;;;;;5094112;28;20356;-75
2023/03/18 00:51:15;;;;;;;22.87;16.20;;;11.20;99.90;;;;;;5094174;28;20776;-75
2023/03/18 00:53:43;;;;;;;21.47;16.33;;;11.10;99.90;;;;;;5093747;28;20724;-75
2023/03/18 00:56:11;;;;;;;23.13;16.83;;;11.10;99.90;;;;;;5094535;28;20367;-75
2023/03/18 00:58:36;;;;;;;22.90;16.30;;;11.10;99.90;;;;;;5094028;28;20361;-75
2023/03/18 01:01:06;;;;;;;27.23;18.27;;;11.10;99.90;;;;;;5092697;28;20419;-75
2023/03/18 01:03:33;;;;;;;25.20;17.63;;;11.10;99.90;;;;;;5092593;28;20101;-75
2023/03/18 01:06:03;;;;;;;22.27;17.27;;;11.00;99.90;;;;;;5093760;28;20719;-75
2023/03/18 01:08:30;;;;;;;24.47;18.03;;;11.00;99.90;;;;;;5093432;28;20322;-74
2023/03/18 01:10:57;;;;;;;26.10;17.80;;;10.90;99.90;;;;;;5075743;28;20741;-74
2023/03/18 01:13:24;;;;;;;22.00;19.63;;;10.90;99.90;;;;;;5093803;28;20344;-74
2023/03/18 01:15:51;;;;;;;24.93;18.30;;;10.80;99.90;;;;;;5093738;28;20712;-74
2023/03/18 01:18:17;;;;;;;24.80;18.07;;;10.70;99.90;;;;;;5093734;28;20289;-74
2023/03/18 01:20:44;;;;;;;24.87;19.23;;;10.70;99.90;;;;;;5093557;28;20282;-75
2023/03/18 01:23:11;;;;;;;26.17;20.60;;;10.60;99.90;;;;;;5093743;28;20275;-74
2023/03/18 01:25:37;;;;;;;24.37;19.53;;;10.60;99.90;;;;;;5094498;28;20306;-74
2023/03/18 01:28:04;;;;;;;23.37;20.80;;;10.50;99.90;;;;;;5093539;28;20305;-74
2023/03/18 01:30:30;;;;;;;24.77;20.33;;;10.50;99.90;;;;;;5093065;28;20282;-74
2023/03/18 01:32:56;;;;;;;22.40;18.47;;;10.40;99.90;;;;;;5093828;28;20282;-74
2023/03/18 01:35:23;;;;;;;26.27;20.37;;;10.40;99.90;;;;;;5093554;28;20055;-74
2023/03/18 01:37:49;;;;;;;26.80;21.87;;;10.40;99.90;;;;;;5093543;28;20351;-75
2023/03/18 01:40:15;;;;;;;24.80;20.10;;;10.30;99.90;;;;;;5093528;28;20278;-74
2023/03/18 01:42:44;;;;;;;27.00;19.87;;;10.30;99.90;;;;;;5094049;28;20048;-74
2023/03/18 01:45:19;;;;;;;24.90;21.57;;;10.30;99.90;;;;;;5093434;28;20760;-74
2023/03/18 01:47:45;;;;;;;27.00;20.50;;;10.20;99.90;;;;;;5093325;28;20416;-76
2023/03/18 01:50:21;;;;;;;25.90;21.43;;;10.30;99.90;;;;;;5093323;28;20048;-74
2023/03/18 01:52:51;;;;;;;26.00;21.47;;;10.20;99.90;;;;;;5093004;28;20622;-75
2023/03/18 01:55:19;;;;;;;23.53;20.23;;;10.20;99.90;;;;;;5092974;28;20753;-74
2023/03/18 01:57:47;;;;;;;27.30;21.43;;;10.20;99.90;;;;;;5092132;28;20331;-76
2023/03/18 02:00:15;;;;;;;27.90;21.43;;;10.20;99.90;;;;;;5094629;28;20327;-74
2023/03/18 02:02:44;;;;;;;26.60;21.37;;;10.20;99.90;;;;;;5097337;28;20676;-74
2023/03/18 02:05:12;;;;;;;26.07;21.73;;;10.20;99.90;;;;;;5096222;28;20407;-74
2023/03/18 02:07:41;;;;;;;30.63;22.40;;;10.10;99.90;;;;;;5097688;28;20290;-74
2023/03/18 02:10:25;;;;;;;27.70;22.30;;;10.10;99.90;;;;;;5097129;28;20754;-74
2023/03/18 02:13:05;;;;;;;29.07;24.27;;;10.00;99.90;;;;;;5097447;28;20347;-75
2023/03/18 02:15:33;;;;;;;28.77;25.33;;;10.00;99.90;;;;;;5097186;28;20310;-74
2023/03/18 02:18:11;;;;;;;28.20;24.20;;;10.00;99.90;;;;;;5097019;28;20340;-74
2023/03/18 02:20:50;;;;;;;30.03;25.00;;;10.00;99.90;;;;;;5097008;28;20274;-74
2023/03/18 02:23:30;;;;;;;26.20;22.80;;;9.90;99.90;;;;;;5097043;28;20274;-74
2023/03/18 02:26:19;;;;;;;28.77;24.07;;;9.90;99.90;;;;;;5097376;28;20349;-74
2023/03/18 02:28:47;;;;;;;34.63;24.23;;;9.90;99.90;;;;;;5097407;28;20328;-74
2023/03/18 02:31:16;;;;;;;28.43;25.37;;;9.90;99.90;;;;;;5096805;28;20273;-74
2023/03/18 02:33:43;;;;;;;31.10;24.77;;;9.80;99.90;;;;;;5096756;28;20289;-74
2023/03/18 02:36:16;;;;;;;30.70;24.13;;;9.80;99.90;;;;;;5096665;28;20276;-74
2023/03/18 02:38:43;;;;;;;28.87;24.97;;;9.80;99.90;;;;;;5097251;28;20352;-74
2023/03/18 02:41:17;;;;;;;30.50;24.30;;;9.80;99.90;;;;;;5096569;28;20811;-74
2023/03/18 02:43:44;;;;;;;27.98;23.65;;;9.70;99.90;;;;;;5095155;28;20750;-74
2023/03/18 02:47:03;;;;;;;32.80;24.90;;;9.70;99.90;;;;;;5096446;28;20061;-74
2023/03/18 02:49:30;;;;;;;31.33;25.13;;;9.70;99.90;;;;;;5062224;28;20340;-74
2023/03/18 02:51:56;;;;;;;31.00;23.40;;;9.70;99.90;;;;;;5095152;28;20299;-74
2023/03/18 02:54:25;;;;;;;31.20;25.00;;;9.70;99.90;;;;;;5096879;28;20410;-74
2023/03/18 02:56:51;;;;;;;32.03;25.30;;;9.70;99.90;;;;;;5096580;28;20035;-74
2023/03/18 02:59:18;;;;;;;34.83;24.97;;;9.60;99.90;;;;;;5096234;28;20328;-74
2023/03/18 03:01:46;;;;;;;31.50;25.33;;;9.60;99.90;;;;;;5096247;28;20323;-74
2023/03/18 03:04:12;;;;;;;29.07;23.73;;;9.60;99.90;;;;;;5096148;28;20360;-74
2023/03/18 03:06:39;;;;;;;32.37;25.73;;;9.50;99.90;;;;;;5095711;28;20786;-74
2023/03/18 03:09:07;;;;;;;34.13;27.57;;;9.60;99.90;;;;;;5095742;28;20286;-74
2023/03/18 03:11:33;;;;;;;27.13;24.10;;;9.50;99.90;;;;;;5093966;28;20377;-74
2023/03/18 03:13:59;;;;;;;32.60;24.77;;;9.50;99.90;;;;;;5078115;28;20286;-74
2023/03/18 03:16:25;;;;;;;30.37;25.40;;;9.50;99.90;;;;;;5094974;28;20293;-74
2023/03/18 03:18:50;;;;;;;31.83;24.83;;;9.50;99.90;;;;;;5095891;28;20131;-74
2023/03/18 03:21:16;;;;;;;29.50;24.00;;;9.50;99.90;;;;;;5094619;28;20075;-74
2023/03/18 03:23:43;;;;;;;30.53;24.67;;;9.50;99.90;;;;;;5095741;28;20044;-74
2023/03/18 03:26:10;;;;;;;29.93;25.10;;;9.50;99.90;;;;;;5096177;28;20079;-74
2023/03/18 03:28:36;;;;;;;33.67;25.67;;;9.50;99.90;;;;;;5095666;28;20325;-74
2023/03/18 03:31:02;;;;;;;30.57;25.83;;;9.50;99.90;;;;;;5094923;28;20291;-74
2023/03/18 03:33:28;;;;;;;34.73;25.83;;;9.50;99.90;;;;;;5095658;28;20377;-74
2023/03/18 03:35:54;;;;;;;28.33;24.73;;;9.50;99.90;;;;;;5094383;28;20492;-74
2023/03/18 03:38:21;;;;;;;30.73;25.87;;;9.50;99.90;;;;;;5095984;28;20047;-74
2023/03/18 03:40:47;;;;;;;31.00;25.67;;;9.50;99.90;;;;;;5095408;28;20066;-74
2023/03/18 03:43:14;;;;;;;34.10;26.13;;;9.50;99.90;;;;;;5095401;28;20278;-74
2023/03/18 03:45:41;;;;;;;28.70;24.37;;;9.50;99.90;;;;;;5096008;28;20079;-74
2023/03/18 03:48:07;;;;;;;27.93;24.33;;;9.50;99.90;;;;;;5095207;28;20765;-74
2023/03/18 03:50:34;;;;;;;32.10;25.43;;;9.50;99.90;;;;;;5095380;28;20270;-74
2023/03/18 03:53:01;;;;;;;31.27;25.87;;;9.50;99.90;;;;;;5077512;28;20305;-75
2023/03/18 03:55:27;;;;;;;31.63;26.00;;;9.40;99.90;;;;;;5094467;28;20314;-74
2023/03/18 03:57:53;;;;;;;29.47;23.73;;;9.40;99.90;;;;;;5094341;28;20322;-74
2023/03/18 04:00:20;;;;;;;36.63;28.00;;;9.40;99.90;;;;;;5094040;28;20044;-74
2023/03/18 04:02:48;;;;;;;33.40;25.80;;;9.40;99.90;;;;;;5093857;28;20051;-73
2023/03/18 04:05:16;;;;;;;29.43;25.73;;;9.40;99.90;;;;;;5095031;28;20278;-74
2023/03/18 04:07:42;;;;;;;31.53;26.20;;;9.40;99.90;;;;;;5095247;28;20773;-74
2023/03/18 04:10:10;;;;;;;29.07;24.87;;;9.40;99.90;;;;;;5093859;28;20292;-74
2023/03/18 04:12:37;;;;;;;28.90;25.23;;;9.50;99.90;;;;;;5094801;28;20320;-74
2023/03/18 04:15:05;;;;;;;29.63;24.00;;;9.40;99.90;;;;;;5094792;28;20274;-75
2023/03/18 04:17:32;;;;;;;32.17;25.60;;;9.40;99.90;;;;;;5095566;28;20391;-74
2023/03/18 04:19:58;;;;;;;29.07;25.87;;;9.40;99.90;;;;;;5094524;28;20294;-74
2023/03/18 04:22:24;;;;;;;28.73;23.63;;;9.40;99.90;;;;;;5094570;28;20288;-74
2023/03/18 04:24:49;;;;;;;32.27;25.67;;;9.40;99.90;;;;;;5094566;28;20361;-74
2023/03/18 04:27:17;;;;;;;30.70;25.67;;;9.40;99.90;;;;;;5094473;28;20036;-74
2023/03/18 04:29:43;;;;;;;33.37;27.37;;;9.40;99.90;;;;;;5094489;28;20055;-74
2023/03/18 04:32:09;;;;;;;40.03;28.83;;;9.40;99.90;;;;;;5094444;28;20376;-74
2023/03/18 04:34:36;;;;;;;39.83;29.43;;;9.50;99.90;;;;;;5093348;28;20286;-74
2023/03/18 04:37:02;;;;;;;41.63;27.00;;;9.50;99.90;;;;;;5094390;28;20356;-74
2023/03/18 04:39:28;;;;;;;42.03;27.17;;;9.50;99.90;;;;;;5094388;28;20631;-74
2023/03/18 04:41:55;;;;;;;39.07;28.43;;;9.50;99.90;;;;;;5094347;28;20309;-74
2023/03/18 04:44:23;;;;;;;41.00;28.27;;;9.50;99.90;;;;;;5094322;28;20310;-74
2023/03/18 04:46:49;;;;;;;42.70;27.87;;;9.50;99.90;;;;;;5094717;28;20309;-74
2023/03/18 04:49:15;;;;;;;39.03;27.67;;;9.60;99.90;;;;;;5093422;28;20309;-74
2023/03/18 04:51:41;;;;;;;43.53;29.10;;;9.60;99.90;;;;;;5093535;28;20296;-74
2023/03/18 04:54:07;;;;;;;47.77;30.33;;;9.60;99.90;;;;;;5094867;28;20128;-75
2023/03/18 04:56:33;;;;;;;46.87;29.27;;;9.60;99.90;;;;;;5094279;28;20036;-74
2023/03/18 04:58:58;;;;;;;41.93;28.43;;;9.60;99.90;;;;;;5094018;28;20368;-74
2023/03/18 05:01:25;;;;;;;46.67;29.13;;;9.60;99.90;;;;;;5093908;28;20044;-74
2023/03/18 05:03:50;;;;;;;51.43;29.90;;;9.60;99.90;;;;;;5092950;28;20043;-74
2023/03/18 05:06:21;;;;;;;49.33;29.03;;;9.60;99.90;;;;;;5093807;28;20776;-74
2023/03/18 05:08:48;;;;;;;56.53;29.23;;;9.60;99.90;;;;;;5094236;28;20113;-74
2023/03/18 05:11:13;;;;;;;59.03;31.07;;;9.60;99.90;;;;;;5094310;28;20365;-74
2023/03/18 05:13:39;;;;;;;71.97;33.80;;;9.60;99.90;;;;;;5092849;28;20318;-74
2023/03/18 05:16:05;;;;;;;66.13;34.90;;;9.60;99.90;;;;;;5093770;28;20080;-74
2023/03/18 05:18:32;;;;;;;61.43;34.80;;;9.60;99.90;;;;;;5094077;28;20123;-74
2023/03/18 05:20:58;;;;;;;58.90;31.97;;;9.50;99.90;;;;;;5093690;28;20319;-74
2023/03/18 05:23:24;;;;;;;58.33;33.37;;;9.60;99.90;;;;;;5093872;28;20780;-74
2023/03/18 05:25:50;;;;;;;58.17;34.23;;;9.60;99.90;;;;;;5093619;28;20360;-74
2023/03/18 05:28:17;;;;;;;57.43;33.43;;;9.60;99.90;;;;;;5093504;28;20040;-74
2023/03/18 05:30:42;;;;;;;55.33;33.60;;;9.60;99.90;;;;;;5093584;28;20044;-74
2023/03/18 05:33:08;;;;;;;55.93;34.03;;;9.50;99.90;;;;;;5093529;28;20285;-74
2023/03/18 05:35:35;;;;;;;48.80;31.80;;;9.60;99.90;;;;;;5097739;28;20044;-74
2023/03/18 05:38:00;;;;;;;51.20;33.67;;;9.60;99.90;;;;;;5101054;28;20120;-74
2023/03/18 05:40:26;;;;;;;53.60;33.87;;;9.60;99.90;;;;;;5099523;28;20753;-74
2023/03/18 05:42:52;;;;;;;50.10;33.27;;;9.50;99.90;;;;;;5100233;28;20083;-74
2023/03/18 05:45:18;;;;;;;47.47;32.93;;;9.50;99.90;;;;;;5100473;28;20044;-74
2023/03/18 05:47:44;;;;;;;48.50;33.87;;;9.50;99.90;;;;;;5100187;28;20083;-74
2023/03/18 05:50:10;;;;;;;40.23;31.07;;;9.50;99.90;;;;;;5100425;28;20333;-74
2023/03/18 05:52:37;;;;;;;44.60;33.80;;;9.50;99.90;;;;;;5100189;28;20054;-74
2023/03/18 05:55:03;;;;;;;40.00;29.00;;;9.50;99.90;;;;;;5100157;28;20373;-74
2023/03/18 05:57:29;;;;;;;40.90;30.83;;;9.50;99.90;;;;;;5100097;28;20270;-74
2023/03/18 05:59:54;;;;;;;42.80;30.10;;;9.50;99.90;;;;;;5100146;28;20626;-74
2023/03/18 06:02:20;;;;;;;43.83;30.83;;;9.50;99.90;;;;;;5100091;28;20079;-74
2023/03/18 06:04:46;;;;;;;39.70;29.43;;;9.50;99.90;;;;;;5100060;28;20480;-74
2023/03/18 06:07:12;;;;;;;41.63;31.07;;;9.50;99.90;;;;;;5099885;28;20075;-74
2023/03/18 06:09:38;;;;;;;37.53;30.30;;;9.50;99.90;;;;;;5100323;28;20780;-74
2023/03/18 06:12:04;;;;;;;38.40;29.53;;;9.50;99.90;;;;;;5100735;28;20079;-74
2023/03/18 06:14:30;;;;;;;41.83;31.03;;;9.50;99.90;;;;;;5099921;28;20395;-74
2023/03/18 06:16:56;;;;;;;38.33;30.77;;;9.50;99.90;;;;;;5099928;28;20040;-74
2023/03/18 06:19:22;;;;;;;41.03;30.57;;;9.50;99.90;;;;;;5099901;28;20051;-74
2023/03/18 06:21:48;;;;;;;41.70;31.33;;;9.50;99.90;;;;;;5099847;28;20044;-74
2023/03/18 06:24:14;;;;;;;41.67;31.17;;;9.50;99.90;;;;;;5100678;28;20040;-74
2023/03/18 06:26:40;;;;;;;43.90;32.60;;;9.50;99.90;;;;;;5099732;28;20381;-74
2023/03/18 06:29:06;;;;;;;39.27;30.27;;;9.50;99.90;;;;;;5099792;28;20050;-74
2023/03/18 06:31:33;;;;;;;40.53;31.30;;;9.50;99.90;;;;;;5100552;28;20274;-74
2023/03/18 06:33:59;;;;;;;42.13;31.77;;;9.50;99.90;;;;;;5099713;28;20479;-74
2023/03/18 06:36:25;;;;;;;40.73;31.97;;;9.50;99.90;;;;;;5099725;28;20773;-74
2023/03/18 06:38:52;;;;;;;42.07;30.37;;;9.50;99.90;;;;;;5099688;28;20278;-74
2023/03/18 06:41:17;;;;;;;39.67;29.30;;;9.60;99.90;;;;;;5099874;28;20496;-74
2023/03/18 06:43:46;;;;;;;37.53;29.10;;;9.60;99.90;;;;;;5099428;28;20274;-74
2023/03/18 06:46:13;;;;;;;36.40;29.73;;;9.60;99.90;;;;;;5099391;28;20048;-74
2023/03/18 06:48:39;;;;;;;37.70;30.40;;;9.70;99.90;;;;;;5095121;28;20289;-74
2023/03/18 06:51:06;;;;;;;43.57;31.00;;;9.70;99.90;;;;;;5096363;28;20373;-74
2023/03/18 06:53:34;;;;;;;38.93;31.47;;;9.70;99.90;;;;;;5096355;28;20270;-74
2023/03/18 06:55:59;;;;;;;38.07;31.07;;;9.80;99.90;;;;;;5095288;28;20340;-74
2023/03/18 06:58:25;;;;;;;35.87;31.67;;;9.90;99.90;;;;;;5095290;28;20282;-74
2023/03/18 07:00:51;;;;;;;40.30;28.07;;;10.00;99.90;;;;;;5096224;28;20048;-74
2023/03/18 07:03:17;;;;;;;35.53;28.43;;;10.10;99.90;;;;;;5096224;28;20278;-74
2023/03/18 07:05:43;;;;;;;34.63;28.77;;;10.10;99.90;;;;;;5096139;28;20072;-74
2023/03/18 07:08:09;;;;;;;37.87;29.27;;;10.10;99.90;;;;;;5095538;28;20135;-74
2023/03/18 07:10:34;;;;;;;36.87;29.43;;;10.10;99.90;;;;;;5096589;28;20060;-75
2023/03/18 07:13:00;;;;;;;37.27;28.00;;;10.20;99.90;;;;;;5095685;28;20332;-74
2023/03/18 07:15:27;;;;;;;33.93;26.13;;;10.10;99.90;;;;;;5095642;28;20048;-75
2023/03/18 07:17:53;;;;;;;36.00;28.53;;;10.20;99.90;;;;;;5096645;28;20067;-74
2023/03/18 07:20:21;;;;;;;39.93;29.20;;;10.20;99.90;;;;;;5095812;28;20286;-74
2023/03/18 07:22:52;;;;;;;34.13;29.93;;;10.20;99.90;;;;;;5095697;28;20803;-74
2023/03/18 07:25:17;;;;;;;37.53;28.57;;;10.30;99.90;;;;;;5095437;28;20279;-74
2023/03/18 07:27:44;;;;;;;37.80;31.20;;;10.40;99.90;;;;;;5060629;28;20298;-74
2023/03/18 07:30:10;;;;;;;35.43;28.93;;;10.40;99.90;;;;;;5095685;28;20101;-74
2023/03/18 07:32:37;;;;;;;34.23;29.30;;;10.40;99.90;;;;;;5095478;28;20642;-75
2023/03/18 07:35:04;;;;;;;33.90;28.60;;;10.40;99.90;;;;;;5095585;28;20281;-75
2023/03/18 07:37:31;;;;;;;36.73;28.53;;;10.40;99.90;;;;;;5095570;28;20313;-75
2023/03/18 07:39:56;;;;;;;37.87;30.67;;;10.40;99.90;;;;;;5094488;28;20641;-75
2023/03/18 07:42:22;;;;;;;37.10;29.57;;;10.40;99.90;;;;;;5095502;28;20366;-75
2023/03/18 07:44:48;;;;;;;37.93;29.77;;;10.40;99.90;;;;;;5095334;28;20052;-75
2023/03/18 07:47:14;;;;;;;35.70;29.47;;;10.40;99.90;;;;;;5094065;28;20384;-75
2023/03/18 07:49:40;;;;;;;35.07;28.77;;;10.50;99.90;;;;;;5095765;28;20122;-74
2023/03/18 07:52:07;;;;;;;31.03;27.20;;;10.50;99.90;;;;;;5094228;28;20127;-74
2023/03/18 07:54:33;;;;;;;38.27;28.07;;;10.60;99.90;;;;;;5095185;28;20365;-75
2023/03/18 07:56:59;;;;;;;36.80;28.20;;;10.60;99.90;;;;;;5094162;28;20301;-75
2023/03/18 07:59:25;;;;;;;37.17;27.97;;;10.60;99.90;;;;;;5094587;28;20321;-75
2023/03/18 08:01:51;;;;;;;33.07;28.23;;;10.70;99.90;;;;;;5094287;28;20325;-75
2023/03/18 08:04:18;;;;;;;30.97;27.67;;;10.70;99.90;;;;;;5095115;28;20089;-75
2023/03/18 08:06:44;;;;;;;34.20;28.53;;;10.70;99.90;;;;;;5094897;28;20043;-75
2023/03/18 08:09:10;;;;;;;30.10;26.87;;;10.70;99.90;;;;;;5095053;28;20294;-75
2023/03/18 08:11:36;;;;;;;35.20;29.13;;;10.70;99.90;;;;;;5094927;28;20286;-75
2023/03/18 08:14:02;;;;;;;37.50;28.33;;;10.70;99.90;;;;;;5094681;28;20773;-75
2023/03/18 08:16:28;;;;;;;31.57;28.13;;;10.70;99.90;;;;;;5094518;28;20289;-75
2023/03/18 08:18:54;;;;;;;36.13;28.07;;;10.70;99.90;;;;;;5094842;28;20048;-75
2023/03/18 08:21:19;;;;;;;32.80;27.33;;;10.70;99.90;;;;;;5095315;28;20048;-75
2023/03/18 08:23:46;;;;;;;34.63;27.10;;;10.70;99.90;;;;;;5093748;28;20048;-75
2023/03/18 08:26:12;;;;;;;33.97;28.83;;;10.70;99.90;;;;;;5094581;28;20122;-75
2023/03/18 08:28:38;;;;;;;36.53;30.07;;;10.60;99.90;;;;;;5094660;28;20278;-76
2023/03/18 08:31:04;;;;;;;34.73;30.23;;;10.60;99.90;;;;;;5093908;28;20297;-76
2023/03/18 08:33:30;;;;;;;36.10;31.63;;;10.70;99.90;;;;;;5095064;28;20130;-74
2023/03/18 08:35:56;;;;;;;36.33;29.87;;;10.70;99.90;;;;;;5093710;28;20428;-74
2023/03/18 08:38:23;;;;;;;35.87;29.33;;;10.60;99.90;;;;;;5094471;28;20048;-75
2023/03/18 08:40:49;;;;;;;36.13;28.43;;;10.70;99.90;;;;;;5093511;28;20758;-75
2023/03/18 08:43:15;;;;;;;33.30;27.50;;;10.70;99.90;;;;;;5094288;28;20282;-75
2023/03/18 08:45:41;;;;;;;33.70;29.30;;;10.70;99.90;;;;;;5094272;28;20047;-76
2023/03/18 08:48:08;;;;;;;34.07;29.33;;;10.70;99.90;;;;;;5094968;28;20654;-75
2023/03/18 08:50:34;;;;;;;34.10;30.47;;;10.80;99.90;;;;;;5094247;28;20361;-75
2023/03/18 08:53:01;;;;;;;36.13;30.73;;;10.80;99.90;;;;;;5094667;28;20274;-75
2023/03/18 08:55:30;;;;;;;34.33;29.63;;;10.80;99.90;;;;;;5094952;28;20274;-75
2023/03/18 08:57:57;;;;;;;33.10;29.23;;;10.80;99.90;;;;;;5094105;28;20617;-76
2023/03/18 09:00:24;;;;;;;35.17;29.20;;;10.90;99.90;;;;;;5092523;28;20286;-76
2023/03/18 09:02:51;;;;;;;36.97;31.37;;;10.90;99.90;;;;;;5093868;28;20769;-76
2023/03/18 09:05:17;;;;;;;33.47;29.33;;;11.00;99.90;;;;;;5093020;28;20286;-75
2023/03/18 09:07:44;;;;;;;35.50;28.40;;;11.00;99.90;;;;;;5093657;28;20298;-74
2023/03/18 09:10:13;;;;;;;35.93;29.53;;;11.10;99.90;;;;;;5093345;28;20282;-74
2023/03/18 09:12:41;;;;;;;36.73;30.93;;;11.10;99.90;;;;;;5094170;28;20330;-76
2023/03/18 09:15:09;;;;;;;33.93;29.67;;;11.20;99.90;;;;;;5093858;28;20745;-76
2023/03/18 09:17:39;;;;;;;36.53;30.60;;;11.30;99.90;;;;;;5093234;28;20334;-76
2023/03/18 09:20:08;;;;;;;35.20;30.33;;;11.40;99.90;;;;;;5093413;28;20285;-75
2023/03/18 09:22:35;;;;;;;33.53;28.27;;;11.50;99.90;;;;;;5092798;28;20744;-76
2023/03/18 09:25:01;;;;;;;33.20;28.50;;;11.60;99.90;;;;;;5093708;28;20372;-74
2023/03/18 09:27:27;;;;;;;34.17;29.00;;;11.80;99.90;;;;;;5093157;28;20381;-74
2023/03/18 09:29:53;;;;;;;33.20;28.63;;;11.90;99.90;;;;;;5093730;28;20105;-75
2023/03/18 09:32:18;;;;;;;33.17;29.77;;;11.90;99.90;;;;;;5093698;28;20278;-75
2023/03/18 09:34:45;;;;;;;34.10;28.77;;;12.10;99.90;;;;;;5093697;28;20484;-76
2023/03/18 09:37:12;;;;;;;36.93;28.50;;;12.20;99.90;;;;;;5093696;28;20047;-76
2023/03/18 09:39:38;;;;;;;32.10;27.53;;;12.30;99.90;;;;;;5093654;28;20274;-75
2023/03/18 09:42:22;;;;;;;31.87;28.43;;;12.30;99.90;;;;;;5092442;28;20312;-75
2023/03/18 09:44:58;;;;;;;31.83;28.37;;;12.40;99.90;;;;;;5092820;28;20290;-76
2023/03/18 09:47:40;;;;;;;33.00;29.50;;;12.50;99.90;;;;;;5094260;28;20293;-75
2023/03/18 09:50:21;;;;;;;37.37;29.77;;;12.60;99.90;;;;;;5093508;28;20282;-74
2023/03/18 09:53:02;;;;;;;33.10;28.87;;;12.70;99.90;;;;;;5093385;28;20390;-75
2023/03/18 09:55:48;;;;;;;33.23;29.37;;;12.80;99.90;;;;;;5093769;28;20691;-74
2023/03/18 09:58:52;;;;;;;29.93;26.67;;;12.80;99.90;;;;;;5093773;28;20270;-74
2023/03/18 10:01:22;;;;;;;30.60;27.30;;;12.80;99.90;;;;;;5094097;28;20274;-74
2023/03/18 10:03:55;;;;;;;30.60;27.33;;;12.80;99.90;;;;;;5092381;28;20289;-74
2023/03/18 10:06:23;;;;;;;30.37;25.27;;;12.90;99.90;;;;;;5093345;28;20286;-74
2023/03/18 10:09:07;;;;;;;29.27;26.20;;;12.90;99.90;;;;;;5092929;28;20290;-77
2023/03/18 10:11:42;;;;;;;26.90;24.00;;;12.90;99.90;;;;;;5093381;28;20275;-81
2023/03/18 10:14:20;;;;;;;29.40;25.17;;;13.00;99.90;;;;;;5093808;28;20318;-82
2023/03/18 10:17:18;;;;;;;29.40;25.27;;;13.00;99.90;;;;;;5093371;28;20286;-82
2023/03/18 10:20:10;;;;;;;26.50;22.93;;;13.00;99.90;;;;;;5093372;28;20297;-84
2023/03/18 10:22:53;;;;;;;26.87;22.30;;;12.90;99.90;;;;;;5096212;28;20282;-84
2023/03/18 10:25:44;;;;;;;25.33;21.33;;;13.00;99.90;;;;;;5097961;28;20423;-84
2023/03/18 10:28:31;;;;;;;25.63;22.43;;;13.10;99.90;;;;;;5097403;28;20368;-83
2023/03/18 10:31:16;;;;;;;26.73;23.10;;;13.10;99.90;;;;;;5097184;28;20318;-85
2023/03/18 10:33:45;;;;;;;24.87;22.33;;;13.00;99.90;;;;;;5097147;28;20310;-83
2023/03/18 10:36:27;;;;;;;24.67;22.03;;;13.10;99.90;;;;;;5097055;28;20753;-84
2023/03/18 10:38:55;;;;;;;24.90;20.97;;;13.10;99.90;;;;;;5097983;28;20282;-83
2023/03/18 10:41:34;;;;;;;29.53;19.63;;;13.20;99.90;;;;;;5096104;28;20347;-83
2023/03/18 10:44:36;;;;;;;20.70;17.50;;;13.20;99.90;;;;;;5096946;28;20757;-82
2023/03/18 10:47:32;;;;;;;19.27;16.63;;;13.30;99.90;;;;;;5096735;28;20295;-79
2023/03/18 10:50:30;;;;;;;21.43;17.00;;;13.20;99.90;;;;;;5096222;28;20367;-74
2023/03/18 10:53:18;;;;;;;20.37;17.10;;;13.20;99.90;;;;;;5095656;28;20286;-81
2023/03/18 10:56:09;;;;;;;17.90;14.73;;;13.10;99.90;;;;;;5095950;28;20350;-84
2023/03/18 10:58:37;;;;;;;18.00;14.57;;;13.10;99.90;;;;;;5093055;28;20770;-83
2023/03/18 11:01:06;;;;;;;19.00;14.33;;;13.00;99.90;;;;;;5094625;28;20282;-81
2023/03/18 11:03:35;;;;;;;18.50;14.03;;;13.00;99.90;;;;;;5096376;28;20786;-81
2023/03/18 11:06:03;;;;;;;13.07;10.20;;;13.10;99.90;;;;;;5096192;28;20294;-80
2023/03/18 11:08:34;;;;;;;12.83;10.40;;;13.10;99.90;;;;;;5096331;28;20309;-82
2023/03/18 11:11:25;;;;;;;14.00;10.43;;;13.20;99.90;;;;;;5096077;28;20369;-77
2023/03/18 11:13:56;;;;;;;12.67;9.60;;;13.20;99.90;;;;;;5096144;28;20285;-80
2023/03/18 11:16:31;;;;;;;11.70;9.33;;;13.30;99.90;;;;;;5096669;28;20271;-79
2023/03/18 11:18:57;;;;;;;12.23;8.35;;;13.30;99.90;;;;;;5096813;28;20309;-78
2023/03/18 11:21:27;;;;;;;10.37;7.63;;;13.40;99.90;;;;;;5095953;28;20476;-78
2023/03/18 11:24:09;;;;;;;13.13;9.37;;;13.50;99.90;;;;;;5095685;28;20286;-78
2023/03/18 11:26:55;;;;;;;11.83;9.53;;;13.60;99.90;;;;;;5095644;28;20304;-78
2023/03/18 11:29:27;;;;;;;15.30;9.93;;;13.80;99.90;;;;;;5095134;28;20332;-80
2023/03/18 11:31:57;;;;;;;12.03;10.07;;;13.80;99.90;;;;;;5095931;28;20297;-77
2023/03/18 11:34:25;;;;;;;10.13;8.33;;;13.80;99.90;;;;;;5095021;28;20278;-76
2023/03/18 11:37:03;;;;;;;12.13;8.17;;;13.90;99.90;;;;;;5095288;28;20350;-83
2023/03/18 11:39:31;;;;;;;10.57;7.80;;;13.90;99.90;;;;;;5093276;28;20347;-76
2023/03/18 11:41:58;;;;;;;11.53;8.50;;;14.00;99.90;;;;;;5094482;28;20843;-76
2023/03/18 11:44:31;;;;;;;12.57;9.50;;;14.00;99.90;;;;;;5094839;28;20286;-78
2023/03/18 11:47:31;;;;;;;13.60;10.10;;;14.10;99.90;;;;;;5094202;28;20316;-77
2023/03/18 11:49:59;;;;;;;12.87;9.77;;;14.20;99.90;;;;;;5095144;28;20817;-74
2023/03/18 11:52:37;;;;;;;10.60;8.63;;;14.30;99.90;;;;;;5095833;28;20310;-74
2023/03/18 11:55:30;;;;;;;13.47;9.37;;;14.40;99.90;;;;;;5095234;28;20274;-74
2023/03/18 11:58:20;;;;;;;14.10;10.33;;;14.50;99.90;;;;;;5095231;28;20301;-73
2023/03/18 12:01:22;;;;;;;12.60;9.77;;;14.50;99.90;;;;;;5095061;28;20282;-73
2023/03/18 12:03:55;;;;;;;12.30;10.63;;;14.60;99.90;;;;;;5095105;28;20361;-73
2023/03/18 12:06:27;;;;;;;14.40;11.40;;;14.70;99.90;;;;;;5094930;28;20282;-73
2023/03/18 12:09:05;;;;;;;16.40;11.47;;;14.70;99.90;;;;;;5095589;28;20305;-73
2023/03/18 12:11:38;;;;;;;15.00;11.20;;;14.60;99.90;;;;;;5093565;28;20289;-76
2023/03/18 12:14:06;;;;;;;15.67;11.20;;;14.60;99.90;;;;;;5092848;28;20669;-75
2023/03/18 12:16:40;;;;;;;17.60;11.50;;;14.60;99.90;;;;;;5094228;28;20278;-77
2023/03/18 12:19:33;;;;;;;14.77;10.73;;;14.70;99.90;;;;;;5093931;28;20369;-76
2023/03/18 12:22:14;;;;;;;13.40;11.27;;;14.80;99.90;;;;;;5092627;28;20293;-74
2023/03/18 12:24:57;;;;;;;12.07;10.03;;;14.80;99.90;;;;;;5094614;28;20282;-80
2023/03/18 12:27:59;;;;;;;16.60;11.03;;;14.80;99.90;;;;;;5094480;28;20301;-72
2023/03/18 12:30:43;;;;;;;10.87;7.37;;;14.80;99.90;;;;;;5094606;28;20289;-71
2023/03/18 12:33:18;;;;;;;9.63;7.80;;;14.70;99.90;;;;;;5094364;28;20282;-72
2023/03/18 12:35:59;;;;;;;11.23;7.75;;;14.70;99.90;;;;;;5094474;28;20281;-76
2023/03/18 12:38:49;;;;;;;9.83;7.67;;;14.70;99.90;;;;;;5095126;28;20044;-74
2023/03/18 12:41:32;;;;;;;10.10;7.53;;;14.80;99.90;;;;;;5094946;28;20346;-74
2023/03/18 12:44:16;;;;;;;11.73;8.07;;;14.80;99.90;;;;;;5094219;28;20278;-75
2023/03/18 12:47:06;;;;;;;11.77;7.87;;;14.80;99.90;;;;;;5094441;28;20297;-74